Time;durP1;ratioP1;P1;durP2;ratioP2;P2;SDS_P1;SDS_P2;PMS_P1;PMS_P2;Temp;Humidity;BMP_temperature;BMP_pressure;BME280_temperature;BME280_humidity;BME280_pressure;Samples;Min_cycle;Max_cycle;Signal;HPM_P1;HPM_P2
2023/04/22 00:00:57;;;;;;;0.80;0.80;;;11.60;99.90;;;;;;6217877;23;20339;-79
2023/04/22 00:03:23;;;;;;;0.77;0.73;;;11.60;99.90;;;;;;6194025;23;20629;-79
2023/04/22 00:05:49;;;;;;;1.10;1.00;;;11.50;99.90;;;;;;6218569;23;20020;-80
2023/04/22 00:08:15;;;;;;;1.17;0.90;;;11.50;99.90;;;;;;6245593;23;20016;-80
2023/04/22 00:10:40;;;;;;;1.47;0.80;;;11.50;99.90;;;;;;6168502;23;20031;-80
2023/04/22 00:13:06;;;;;;;1.07;0.67;;;11.50;99.90;;;;;;6218931;23;20022;-79
2023/04/22 00:15:32;;;;;;;1.47;1.33;;;11.50;99.90;;;;;;6218767;23;20012;-79
2023/04/22 00:17:58;;;;;;;1.50;0.93;;;11.40;99.90;;;;;;6193271;23;20436;-79
2023/04/22 00:20:24;;;;;;;0.93;0.93;;;11.30;99.90;;;;;;6219502;23;20401;-79
2023/04/22 00:22:50;;;;;;;1.33;0.88;;;11.30;99.90;;;;;;6245587;23;20096;-79
2023/04/22 00:25:16;;;;;;;0.80;0.80;;;11.20;99.90;;;;;;6245910;23;20058;-80
2023/04/22 00:27:41;;;;;;;0.77;0.70;;;11.20;99.90;;;;;;6218279;23;20020;-80
2023/04/22 00:30:08;;;;;;;0.60;0.60;;;11.10;99.90;;;;;;6218552;23;20016;-80
2023/04/22 00:32:34;;;;;;;1.02;0.60;;;11.00;99.90;;;;;;6245716;23;20024;-80
2023/04/22 00:35:00;;;;;;;3.13;1.10;;;10.90;99.90;;;;;;6193170;23;20016;-80
2023/04/22 00:37:26;;;;;;;0.67;0.67;;;10.90;99.90;;;;;;6218394;23;20383;-79
2023/04/22 00:39:52;;;;;;;0.63;0.63;;;10.80;99.90;;;;;;6244995;23;20016;-79
2023/04/22 00:42:18;;;;;;;0.77;0.77;;;10.70;99.90;;;;;;6245232;23;20016;-83
2023/04/22 00:44:46;;;;;;;0.68;0.68;;;10.70;99.90;;;;;;6245022;23;20028;-80
2023/04/22 00:47:11;;;;;;;1.13;0.95;;;10.70;99.90;;;;;;6245592;23;20099;-80
2023/04/22 00:49:38;;;;;;;1.33;0.63;;;10.60;99.90;;;;;;6218595;23;20101;-80
2023/04/22 00:52:04;;;;;;;1.25;0.90;;;10.60;99.90;;;;;;6245065;23;20082;-80
2023/04/22 00:54:31;;;;;;;2.08;1.17;;;10.60;99.90;;;;;;6218075;23;20019;-80
2023/04/22 00:56:57;;;;;;;0.90;0.80;;;10.60;99.90;;;;;;6245019;23;20020;-79
2023/04/22 00:59:25;;;;;;;1.23;0.95;;;10.50;99.90;;;;;;6245056;23;20448;-79
2023/04/22 01:01:52;;;;;;;1.13;1.00;;;10.50;99.90;;;;;;6244894;23;20095;-79
2023/04/22 01:04:18;;;;;;;0.70;0.70;;;10.40;99.90;;;;;;6218493;23;20016;-84
2023/04/22 01:06:45;;;;;;;1.95;1.13;;;10.40;99.90;;;;;;6244425;23;20052;-87
2023/04/22 01:09:12;;;;;;;1.23;1.00;;;10.40;99.90;;;;;;6245274;23;20012;-79
2023/04/22 01:11:38;;;;;;;1.52;1.05;;;10.30;99.90;;;;;;6218576;23;20016;-79
2023/04/22 01:14:04;;;;;;;1.67;1.10;;;10.30;99.90;;;;;;6244569;23;20193;-83
2023/04/22 01:16:32;;;;;;;2.13;0.97;;;10.20;99.90;;;;;;6218319;23;20031;-80
2023/04/22 01:18:59;;;;;;;1.98;0.88;;;10.30;99.90;;;;;;6218723;23;20142;-80
2023/04/22 01:21:26;;;;;;;1.08;0.90;;;10.30;99.90;;;;;;6218429;23;20086;-80
2023/04/22 01:23:52;;;;;;;2.25;1.08;;;10.30;99.90;;;;;;6218065;23;20031;-86
2023/04/22 01:26:18;;;;;;;2.17;1.30;;;10.30;99.90;;;;;;6218295;23;20012;-80
2023/04/22 01:28:44;;;;;;;1.70;1.20;;;10.30;99.90;;;;;;6218543;23;20384;-86
2023/04/22 01:31:11;;;;;;;2.83;1.10;;;10.30;99.90;;;;;;6245363;23;20062;-79
2023/04/22 01:33:37;;;;;;;0.52;0.52;;;10.30;99.90;;;;;;6193933;23;20441;-79
2023/04/22 01:36:03;;;;;;;0.90;0.80;;;10.30;99.90;;;;;;6218271;23;20020;-79
2023/04/22 01:38:32;;;;;;;2.58;1.30;;;10.30;99.90;;;;;;6218494;23;20095;-79
2023/04/22 01:40:59;;;;;;;1.30;1.17;;;10.30;99.90;;;;;;6218453;23;20020;-79
2023/04/22 01:43:25;;;;;;;1.30;0.93;;;10.30;99.90;;;;;;6219148;23;20020;-80
2023/04/22 01:45:51;;;;;;;0.95;0.80;;;10.30;99.90;;;;;;6218068;23;20345;-80
2023/04/22 01:48:16;;;;;;;0.83;0.80;;;10.20;99.90;;;;;;6218583;23;20077;-79
2023/04/22 01:50:42;;;;;;;1.83;1.23;;;10.20;99.90;;;;;;6219061;23;20095;-79
2023/04/22 01:53:08;;;;;;;1.50;1.03;;;10.20;99.90;;;;;;6218052;23;20011;-80
2023/04/22 01:55:36;;;;;;;1.27;0.82;;;10.10;99.90;;;;;;6219409;23;20027;-80
2023/04/22 01:58:03;;;;;;;1.73;0.85;;;10.00;99.90;;;;;;6246461;23;20070;-84
2023/04/22 02:00:29;;;;;;;2.70;0.90;;;9.90;99.90;;;;;;6219729;23;20023;-80
2023/04/22 02:02:55;;;;;;;0.83;0.83;;;9.90;99.90;;;;;;6246439;23;20020;-79
2023/04/22 02:05:21;;;;;;;0.70;0.63;;;9.80;99.90;;;;;;6220236;23;20285;-80
2023/04/22 02:07:52;;;;;;;0.50;0.40;;;9.70;99.90;;;;;;6246444;23;20024;-80
2023/04/22 02:10:18;;;;;;;1.13;0.90;;;9.70;99.90;;;;;;6246848;23;20024;-80
2023/04/22 02:12:43;;;;;;;1.60;0.63;;;9.70;99.90;;;;;;6246955;23;20016;-79
2023/04/22 02:15:09;;;;;;;2.57;1.33;;;9.70;99.90;;;;;;6219813;23;20329;-79
2023/04/22 02:17:35;;;;;;;1.05;0.90;;;9.70;99.90;;;;;;6195294;23;20341;-80
2023/04/22 02:20:03;;;;;;;1.23;1.13;;;9.70;99.90;;;;;;6220401;23;20027;-80
2023/04/22 02:22:28;;;;;;;1.35;1.08;;;9.70;99.90;;;;;;6247587;23;20335;-80
2023/04/22 02:24:54;;;;;;;1.17;1.00;;;9.70;99.90;;;;;;6220102;23;20027;-80
2023/04/22 02:27:21;;;;;;;1.58;1.05;;;9.60;99.90;;;;;;6220316;23;20023;-80
2023/04/22 02:29:47;;;;;;;1.15;1.00;;;9.60;99.90;;;;;;6194746;23;20491;-86
2023/04/22 02:32:14;;;;;;;0.60;0.60;;;9.60;99.90;;;;;;6219474;23;20012;-80
2023/04/22 02:34:40;;;;;;;1.17;0.82;;;9.50;99.90;;;;;;6194946;23;20024;-80
2023/04/22 02:37:05;;;;;;;1.00;0.88;;;9.50;99.90;;;;;;6194581;23;20028;-79
2023/04/22 02:39:31;;;;;;;1.73;0.70;;;9.40;99.90;;;;;;6220246;23;20026;-79
2023/04/22 02:41:57;;;;;;;1.50;0.73;;;9.40;99.90;;;;;;6246434;23;20020;-79
2023/04/22 02:44:22;;;;;;;1.20;1.10;;;9.30;99.90;;;;;;6194987;23;20441;-80
2023/04/22 02:46:48;;;;;;;1.70;0.80;;;9.30;99.90;;;;;;6246423;23;20016;-80
2023/04/22 02:49:14;;;;;;;0.30;0.30;;;9.20;99.90;;;;;;6246370;23;20429;-80
2023/04/22 02:51:39;;;;;;;0.40;0.40;;;9.10;99.90;;;;;;6220086;23;20027;-80
2023/04/22 02:54:05;;;;;;;0.97;0.43;;;9.10;99.90;;;;;;6246004;23;20475;-80
2023/04/22 02:56:31;;;;;;;1.43;0.60;;;9.00;99.90;;;;;;6194873;23;20142;-80
2023/04/22 02:58:56;;;;;;;2.17;1.30;;;9.00;99.90;;;;;;6219024;23;20016;-86
2023/04/22 03:01:22;;;;;;;1.00;0.87;;;9.00;99.90;;;;;;6219884;23;20095;-80
2023/04/22 03:03:48;;;;;;;1.03;0.70;;;8.90;99.90;;;;;;6219661;23;20027;-79
2023/04/22 03:06:14;;;;;;;1.53;0.93;;;8.80;99.90;;;;;;6246195;23;20376;-80
2023/04/22 03:08:39;;;;;;;1.17;0.57;;;8.80;99.90;;;;;;6219161;23;20035;-86
2023/04/22 03:11:05;;;;;;;1.00;0.90;;;8.70;99.90;;;;;;6219406;23;20039;-80
2023/04/22 03:13:31;;;;;;;0.57;0.57;;;8.70;99.90;;;;;;6194309;23;20020;-80
2023/04/22 03:15:56;;;;;;;0.57;0.53;;;8.60;99.90;;;;;;6246251;23;20020;-80
2023/04/22 03:18:22;;;;;;;0.77;0.70;;;8.60;99.90;;;;;;6219163;23;20012;-80
2023/04/22 03:20:48;;;;;;;1.27;0.60;;;8.60;99.90;;;;;;6219241;23;20023;-80
2023/04/22 03:23:14;;;;;;;0.80;0.70;;;8.60;99.90;;;;;;6218836;23;20095;-80
2023/04/22 03:25:40;;;;;;;1.73;0.80;;;8.50;99.90;;;;;;6218736;23;20013;-80
2023/04/22 03:28:06;;;;;;;0.43;0.43;;;8.50;99.90;;;;;;6193977;23;20051;-80
2023/04/22 03:30:31;;;;;;;0.43;0.37;;;8.40;99.90;;;;;;6219562;23;20020;-79
2023/04/22 03:32:57;;;;;;;0.30;0.30;;;8.40;99.90;;;;;;6218684;23;20019;-80
2023/04/22 03:35:23;;;;;;;0.73;0.40;;;8.30;99.90;;;;;;6245765;23;20344;-81
2023/04/22 03:37:49;;;;;;;0.37;0.37;;;8.30;99.90;;;;;;6194298;23;20020;-80
2023/04/22 03:40:15;;;;;;;0.47;0.47;;;8.20;99.90;;;;;;6218947;23;20492;-79
2023/04/22 03:42:41;;;;;;;1.13;0.40;;;8.20;99.90;;;;;;6246075;23;20020;-79
2023/04/22 03:45:07;;;;;;;0.77;0.53;;;8.20;99.90;;;;;;6193339;23;20047;-80
2023/04/22 03:47:32;;;;;;;0.67;0.40;;;8.10;99.90;;;;;;6245650;23;20016;-82
2023/04/22 03:49:58;;;;;;;0.40;0.37;;;8.10;99.90;;;;;;6219257;23;20571;-80
2023/04/22 03:52:24;;;;;;;0.67;0.40;;;8.00;99.90;;;;;;6218962;23;20020;-80
2023/04/22 03:54:50;;;;;;;0.95;0.95;;;8.00;99.90;;;;;;6213795;23;20054;-79
2023/04/22 03:57:19;;;;;;;0.50;0.50;;;8.00;99.90;;;;;;6214873;23;20058;-80
2023/04/22 03:59:44;;;;;;;0.47;0.43;;;8.00;99.90;;;;;;6215409;23;20025;-80
2023/04/22 04:02:10;;;;;;;0.77;0.30;;;8.00;99.90;;;;;;6213688;23;20070;-80
2023/04/22 04:04:36;;;;;;;1.03;0.43;;;8.00;99.90;;;;;;6213673;23;20016;-80
2023/04/22 04:07:02;;;;;;;0.30;0.30;;;8.00;99.90;;;;;;6213824;23;20091;-80
2023/04/22 04:09:28;;;;;;;0.63;0.50;;;8.00;99.90;;;;;;6213240;23;20146;-80
2023/04/22 04:11:53;;;;;;;0.60;0.53;;;8.00;99.90;;;;;;6214078;23;20023;-80
2023/04/22 04:14:19;;;;;;;1.03;0.60;;;8.00;99.90;;;;;;6188093;23;20449;-80
2023/04/22 04:16:45;;;;;;;1.67;0.93;;;8.00;99.90;;;;;;6213969;23;20027;-80
2023/04/22 04:19:11;;;;;;;2.00;1.30;;;8.00;99.90;;;;;;6214727;23;20016;-80
2023/04/22 04:21:36;;;;;;;1.30;0.80;;;8.00;99.90;;;;;;6188516;23;20445;-80
2023/04/22 04:24:02;;;;;;;2.00;0.67;;;8.00;99.90;;;;;;6188891;23;20017;-84
2023/04/22 04:26:28;;;;;;;1.52;1.42;;;8.10;99.90;;;;;;6213460;23;20032;-82
2023/04/22 04:28:54;;;;;;;1.13;0.93;;;8.00;99.90;;;;;;6215115;23;20020;-80
2023/04/22 04:31:20;;;;;;;1.27;0.60;;;8.10;99.90;;;;;;6187631;23;20076;-80
2023/04/22 04:33:46;;;;;;;1.65;1.27;;;8.10;99.90;;;;;;6213558;23;20104;-86
2023/04/22 04:36:12;;;;;;;2.80;0.90;;;8.10;99.90;;;;;;6215005;23;20044;-81
2023/04/22 04:38:38;;;;;;;2.50;0.65;;;8.10;99.90;;;;;;6213854;23;20083;-80
2023/04/22 04:41:04;;;;;;;2.47;1.53;;;8.00;99.90;;;;;;6188862;23;20020;-80
2023/04/22 04:43:30;;;;;;;0.97;0.70;;;8.00;99.90;;;;;;6214787;23;20024;-80
2023/04/22 04:45:56;;;;;;;1.02;0.65;;;8.00;99.90;;;;;;6215542;23;20017;-79
2023/04/22 04:48:25;;;;;;;1.83;1.20;;;8.10;99.90;;;;;;6214713;23;20038;-79
2023/04/22 04:50:52;;;;;;;0.93;0.65;;;8.10;99.90;;;;;;6215581;23;20027;-80
2023/04/22 04:53:21;;;;;;;2.92;1.00;;;8.10;99.90;;;;;;6220890;23;20095;-80
2023/04/22 04:55:47;;;;;;;2.03;1.10;;;8.20;99.90;;;;;;6245720;23;20028;-79
2023/04/22 04:58:12;;;;;;;1.17;1.08;;;8.30;99.90;;;;;;6218705;23;20020;-80
2023/04/22 05:00:38;;;;;;;1.90;1.00;;;8.30;99.90;;;;;;6218499;23;20027;-79
2023/04/22 05:03:04;;;;;;;1.23;0.90;;;8.30;99.90;;;;;;6218861;23;20349;-79
2023/04/22 05:05:30;;;;;;;1.47;0.87;;;8.30;99.90;;;;;;6193826;23;20087;-79
2023/04/22 05:07:56;;;;;;;1.17;0.77;;;8.30;99.90;;;;;;6245347;23;20012;-79
2023/04/22 05:10:21;;;;;;;2.93;1.13;;;8.30;99.90;;;;;;6218234;23;20278;-79
2023/04/22 05:12:47;;;;;;;3.33;0.87;;;8.30;99.90;;;;;;6193446;23;20020;-80
2023/04/22 05:15:14;;;;;;;0.83;0.60;;;8.30;99.90;;;;;;6217998;23;20048;-86
2023/04/22 05:17:39;;;;;;;1.02;0.82;;;8.40;99.90;;;;;;6193447;23;20027;-80
2023/04/22 05:20:06;;;;;;;2.17;1.07;;;8.40;99.90;;;;;;6218077;23;20020;-80
2023/04/22 05:22:33;;;;;;;1.58;1.00;;;8.40;99.90;;;;;;6192627;23;20095;-80
2023/04/22 05:25:01;;;;;;;2.15;1.20;;;8.50;99.90;;;;;;6218415;23;20027;-80
2023/04/22 05:27:26;;;;;;;0.70;0.70;;;8.50;99.90;;;;;;6218050;23;20023;-80
2023/04/22 05:29:52;;;;;;;1.63;0.83;;;8.60;99.90;;;;;;6244230;23;20012;-80
2023/04/22 05:32:18;;;;;;;2.20;1.63;;;8.70;99.90;;;;;;6244564;23;20023;-80
2023/04/22 05:34:43;;;;;;;1.80;0.90;;;8.70;99.90;;;;;;6193022;23;20016;-80
2023/04/22 05:37:09;;;;;;;1.03;0.50;;;8.80;99.90;;;;;;6217968;23;20016;-80
2023/04/22 05:39:35;;;;;;;1.05;0.93;;;8.90;99.90;;;;;;6245106;23;20094;-80
2023/04/22 05:42:01;;;;;;;1.13;0.93;;;8.90;99.90;;;;;;6218964;23;20048;-80
2023/04/22 05:44:27;;;;;;;1.97;1.33;;;9.00;99.90;;;;;;6218501;23;20024;-80
2023/04/22 05:46:53;;;;;;;2.53;1.20;;;9.00;99.90;;;;;;6245536;23;20016;-80
2023/04/22 05:49:18;;;;;;;1.30;1.00;;;9.10;99.90;;;;;;6217823;23;20012;-87
2023/04/22 05:51:44;;;;;;;1.77;0.77;;;9.10;99.90;;;;;;6218857;23;20020;-80
2023/04/22 05:54:10;;;;;;;0.80;0.80;;;9.10;99.90;;;;;;6218106;23;20023;-79
2023/04/22 05:56:36;;;;;;;1.60;0.50;;;9.20;99.90;;;;;;6218085;23;20020;-80
2023/04/22 05:59:02;;;;;;;1.70;1.13;;;9.20;99.90;;;;;;6219165;23;20020;-80
2023/04/22 06:01:27;;;;;;;1.50;0.97;;;9.30;99.90;;;;;;6168566;23;20322;-80
2023/04/22 06:03:53;;;;;;;1.37;0.90;;;9.30;99.90;;;;;;6218782;23;20097;-80
2023/04/22 06:06:19;;;;;;;0.97;0.80;;;9.40;99.90;;;;;;6245411;23;20481;-88
2023/04/22 06:08:45;;;;;;;2.53;0.80;;;9.40;99.90;;;;;;6218476;23;20028;-80
2023/04/22 06:11:10;;;;;;;1.43;1.03;;;9.50;99.90;;;;;;6245192;23;20056;-85
2023/04/22 06:13:36;;;;;;;1.53;0.93;;;9.50;99.90;;;;;;6192782;23;20055;-84
2023/04/22 06:16:05;;;;;;;1.00;0.90;;;9.60;99.90;;;;;;6218860;23;20138;-78
2023/04/22 06:18:31;;;;;;;2.95;1.63;;;9.60;99.90;;;;;;6217361;23;20009;-79
2023/04/22 06:20:57;;;;;;;5.23;1.53;;;9.70;99.90;;;;;;6218367;23;20471;-79
2023/04/22 06:23:22;;;;;;;3.03;1.07;;;9.80;99.90;;;;;;6217784;23;20474;-80
2023/04/22 06:25:48;;;;;;;2.83;1.20;;;9.80;99.90;;;;;;6217449;23;20055;-80
2023/04/22 06:28:14;;;;;;;2.33;1.27;;;9.90;99.90;;;;;;6244678;23;20440;-79
2023/04/22 06:30:40;;;;;;;2.17;0.93;;;9.90;99.90;;;;;;6192335;23;20083;-80
2023/04/22 06:33:05;;;;;;;2.23;1.13;;;9.90;99.90;;;;;;6219280;23;20016;-85
2023/04/22 06:35:34;;;;;;;1.33;0.53;;;10.00;99.90;;;;;;6193492;23;20476;-84
2023/04/22 06:38:00;;;;;;;1.30;1.20;;;10.00;99.90;;;;;;6218635;23;20456;-83
2023/04/22 06:40:26;;;;;;;1.70;1.13;;;10.10;99.90;;;;;;6218147;23;20092;-86
2023/04/22 06:42:51;;;;;;;3.97;1.33;;;10.10;99.90;;;;;;6170184;23;20471;-85
2023/04/22 06:45:17;;;;;;;3.30;1.27;;;10.10;99.90;;;;;;6220502;23;20054;-85
2023/04/22 06:47:43;;;;;;;1.27;0.80;;;10.20;99.90;;;;;;6146226;23;20106;-85
2023/04/22 06:50:09;;;;;;;2.27;1.23;;;10.20;99.90;;;;;;6170512;23;20061;-85
2023/04/22 06:52:35;;;;;;;2.72;1.38;;;10.20;99.90;;;;;;6219867;23;20055;-82
2023/04/22 06:55:04;;;;;;;1.80;1.17;;;10.30;99.90;;;;;;6194267;23;20024;-82
2023/04/22 06:57:30;;;;;;;1.95;1.33;;;10.30;99.90;;;;;;6193279;23;20484;-83
2023/04/22 06:59:55;;;;;;;2.10;1.23;;;10.40;99.90;;;;;;6246202;23;20016;-85
2023/04/22 07:02:21;;;;;;;1.80;1.67;;;10.40;99.90;;;;;;6169793;23;20027;-83
2023/04/22 07:04:47;;;;;;;2.40;1.50;;;10.50;99.90;;;;;;6218831;23;20035;-83
2023/04/22 07:07:13;;;;;;;3.13;1.10;;;10.50;99.90;;;;;;6194457;23;20016;-83
2023/04/22 07:09:39;;;;;;;2.60;1.43;;;10.60;99.90;;;;;;6218399;23;20012;-84
2023/04/22 07:12:05;;;;;;;0.87;0.73;;;10.60;99.90;;;;;;6246106;23;20314;-86
2023/04/22 07:14:32;;;;;;;2.55;1.17;;;10.70;99.90;;;;;;6193815;23;20250;-83
2023/04/22 07:16:58;;;;;;;2.70;1.85;;;10.70;99.90;;;;;;6219225;23;20091;-82
2023/04/22 07:19:24;;;;;;;1.52;1.27;;;10.80;99.90;;;;;;6194493;23;20016;-83
2023/04/22 07:21:50;;;;;;;3.17;1.33;;;10.80;99.90;;;;;;6169834;23;20020;-83
2023/04/22 07:24:16;;;;;;;2.15;1.10;;;10.80;99.90;;;;;;6194734;23;20012;-82
2023/04/22 07:26:43;;;;;;;1.43;1.23;;;10.90;99.90;;;;;;6193838;23;20452;-82
2023/04/22 07:29:11;;;;;;;1.40;1.23;;;11.00;99.90;;;;;;6218899;23;20016;-79
2023/04/22 07:31:37;;;;;;;1.92;1.02;;;11.00;99.90;;;;;;6194090;23;20016;-85
2023/04/22 07:34:03;;;;;;;1.00;0.70;;;11.10;99.90;;;;;;6219118;23;20012;-82
2023/04/22 07:36:31;;;;;;;2.58;1.38;;;11.20;99.90;;;;;;6244833;23;20087;-82
2023/04/22 07:38:57;;;;;;;2.53;1.25;;;11.30;99.90;;;;;;6193549;23;20020;-82
2023/04/22 07:41:23;;;;;;;2.17;0.95;;;11.40;99.90;;;;;;6218925;23;20453;-82
2023/04/22 07:43:52;;;;;;;1.73;1.13;;;11.50;99.90;;;;;;6218342;23;20016;-84
2023/04/22 07:46:17;;;;;;;2.28;1.38;;;11.50;99.90;;;;;;6194424;23;20016;-82
2023/04/22 07:48:43;;;;;;;1.90;1.27;;;11.60;99.90;;;;;;6218683;23;20058;-81
2023/04/22 07:51:09;;;;;;;1.43;1.03;;;11.60;99.90;;;;;;6170069;23;20044;-81
2023/04/22 07:53:34;;;;;;;4.60;1.47;;;11.70;99.90;;;;;;6244972;23;20505;-83
2023/04/22 07:56:01;;;;;;;1.00;0.90;;;11.80;99.90;;;;;;6220347;23;20444;-81
2023/04/22 07:58:27;;;;;;;2.83;1.25;;;11.90;99.90;;;;;;6245680;23;20023;-82
2023/04/22 08:00:52;;;;;;;1.23;0.87;;;12.00;99.90;;;;;;6218266;23;20020;-82
2023/04/22 08:03:18;;;;;;;2.33;1.40;;;12.00;99.90;;;;;;6193594;23;20371;-83
2023/04/22 08:05:44;;;;;;;4.37;2.03;;;12.20;99.90;;;;;;6193090;23;20631;-82
2023/04/22 08:08:09;;;;;;;1.53;1.33;;;12.30;99.90;;;;;;6218310;23;20066;-83
2023/04/22 08:10:35;;;;;;;1.67;0.80;;;12.50;99.90;;;;;;6244663;23;20091;-83
2023/04/22 08:13:01;;;;;;;2.87;1.80;;;12.70;99.90;;;;;;6168454;23;20109;-83
2023/04/22 08:15:27;;;;;;;1.63;0.90;;;12.80;99.90;;;;;;6218566;23;20115;-83
2023/04/22 08:17:53;;;;;;;2.43;1.73;;;13.00;99.90;;;;;;6218240;23;20009;-85
2023/04/22 08:20:18;;;;;;;2.00;1.20;;;13.20;99.90;;;;;;6218520;23;20070;-83
2023/04/22 08:22:45;;;;;;;2.35;1.20;;;13.30;99.90;;;;;;6217780;23;20404;-82
2023/04/22 08:25:11;;;;;;;1.23;0.98;;;13.50;99.90;;;;;;6218581;23;20023;-83
2023/04/22 08:27:37;;;;;;;1.00;1.00;;;13.80;99.90;;;;;;6218072;23;20016;-83
2023/04/22 08:30:05;;;;;;;2.75;1.45;;;14.10;99.90;;;;;;6245320;23;20020;-80
2023/04/22 08:32:33;;;;;;;1.55;1.08;;;14.30;99.90;;;;;;6224329;23;20016;-82
2023/04/22 08:34:59;;;;;;;1.95;1.33;;;14.50;99.90;;;;;;6177689;23;20012;-81
2023/04/22 08:37:28;;;;;;;1.73;1.40;;;14.60;99.90;;;;;;6197173;23;20054;-82
2023/04/22 08:39:54;;;;;;;1.52;0.80;;;14.90;99.90;;;;;;6257921;23;20026;-84
2023/04/22 08:42:21;;;;;;;1.27;0.93;;;15.20;99.90;;;;;;6208443;23;20008;-80
2023/04/22 08:44:48;;;;;;;1.90;1.00;;;15.50;99.90;;;;;;6264300;23;20198;-82
2023/04/22 08:47:15;;;;;;;1.40;0.98;;;15.90;99.90;;;;;;6214215;23;20016;-87
2023/04/22 08:49:42;;;;;;;1.10;0.93;;;15.90;99.90;;;;;;6235802;23;20012;-84
2023/04/22 08:52:10;;;;;;;0.82;0.80;;;16.00;99.90;;;;;;6208800;23;20079;-82
2023/04/22 08:54:38;;;;;;;0.95;0.75;;;16.10;99.90;;;;;;6207230;23;20016;-82
2023/04/22 08:57:04;;;;;;;1.30;0.63;;;16.20;99.90;;;;;;6203761;23;20055;-83
2023/04/22 08:59:30;;;;;;;1.45;0.90;;;16.40;99.90;;;;;;6203020;23;20020;-83
2023/04/22 09:01:57;;;;;;;;;;;16.50;99.90;;;;;;6203858;23;20023;-82
2023/04/22 09:04:23;;;;;;;1.10;1.00;;;16.70;99.90;;;;;;6229267;23;19911;-83
2023/04/22 09:06:51;;;;;;;2.53;1.17;;;16.70;99.90;;;;;;6207387;23;20012;-85
2023/04/22 09:09:18;;;;;;;1.33;0.70;;;16.90;99.90;;;;;;6206047;23;20012;-85
2023/04/22 09:11:44;;;;;;;0.73;0.73;;;17.00;99.90;;;;;;6254712;23;20020;-85
2023/04/22 09:14:10;;;;;;;1.05;0.80;;;17.30;99.90;;;;;;6200026;23;20008;-83
2023/04/22 09:16:46;;;;;;;0.73;0.68;;;17.40;99.90;;;;;;6174103;23;20056;-83
2023/04/22 09:19:13;;;;;;;1.38;1.15;;;17.60;99.90;;;;;;6254970;23;20417;-87
2023/04/22 09:21:40;;;;;;;1.20;1.10;;;17.90;99.90;;;;;;6167832;23;20018;-87
2023/04/22 09:24:08;;;;;;;0.65;0.65;;;18.00;99.90;;;;;;6192883;23;20305;-85
2023/04/22 09:26:37;;;;;;;1.02;0.70;;;18.00;99.90;;;;;;6218706;23;20047;-84
2023/04/22 09:29:08;;;;;;;1.20;0.73;;;18.20;99.90;;;;;;6193163;23;20011;-84
2023/04/22 09:31:36;;;;;;;2.00;0.95;;;18.30;99.90;;;;;;6170781;23;20360;-85
2023/04/22 09:34:03;;;;;;;1.52;0.90;;;18.40;99.90;;;;;;6192809;23;20083;-85
2023/04/22 09:36:32;;;;;;;0.82;0.77;;;18.50;99.90;;;;;;6218395;23;20078;-86
2023/04/22 09:39:04;;;;;;;2.25;1.00;;;18.50;99.90;;;;;;6193025;23;20013;-86
2023/04/22 09:41:33;;;;;;;1.45;0.70;;;18.80;99.90;;;;;;6193519;23;20019;-85
2023/04/22 09:44:00;;;;;;;1.23;0.60;;;18.80;99.90;;;;;;6193092;23;20091;-85
2023/04/22 09:46:28;;;;;;;1.23;0.65;;;18.70;99.90;;;;;;6193091;23;20012;-85
2023/04/22 09:48:55;;;;;;;1.13;0.68;;;18.50;99.90;;;;;;6192137;23;20012;-85
2023/04/22 09:51:21;;;;;;;1.65;0.93;;;18.30;99.90;;;;;;6198953;23;20023;-86
2023/04/22 09:54:09;;;;;;;2.78;1.00;;;18.20;99.90;;;;;;6219660;23;20466;-84
2023/04/22 09:56:48;;;;;;;0.73;0.70;;;18.10;99.90;;;;;;6192980;23;20515;-83
2023/04/22 09:59:20;;;;;;;1.40;1.17;;;18.10;99.90;;;;;;6217376;23;20043;-84
2023/04/22 10:01:46;;;;;;;2.05;1.00;;;18.10;99.90;;;;;;6193790;23;20054;-85
2023/04/22 10:04:14;;;;;;;0.60;0.60;;;18.20;99.90;;;;;;6194304;23;20016;-84
2023/04/22 10:06:41;;;;;;;1.02;0.50;;;18.30;99.90;;;;;;6193599;23;20432;-83
2023/04/22 10:09:08;;;;;;;;;;;18.40;99.90;;;;;;6192902;23;20272;-84
2023/04/22 10:11:34;;;;;;;1.08;0.77;;;18.70;99.90;;;;;;6193368;23;19912;-84
2023/04/22 10:14:00;;;;;;;1.13;0.60;;;18.80;99.90;;;;;;6193055;23;20024;-84
2023/04/22 10:16:28;;;;;;;1.10;0.70;;;18.80;99.90;;;;;;6219149;23;20062;-85
2023/04/22 10:18:57;;;;;;;1.75;0.77;;;18.90;99.90;;;;;;6196209;23;20012;-84
2023/04/22 10:21:25;;;;;;;1.20;0.77;;;18.90;99.90;;;;;;6196488;23;20012;-84
2023/04/22 10:23:51;;;;;;;1.35;0.98;;;18.90;99.90;;;;;;6195226;23;20062;-85
2023/04/22 10:26:47;;;;;;;0.55;0.47;;;19.10;99.90;;;;;;6220601;23;20012;-88
2023/04/22 10:29:17;;;;;;;1.65;1.27;;;19.00;99.90;;;;;;6194800;23;20146;-88
2023/04/22 10:31:52;;;;;;;1.08;0.50;;;19.10;99.90;;;;;;6220550;23;20012;-87
2023/04/22 10:34:18;;;;;;;0.75;0.70;;;19.10;99.90;;;;;;6196235;23;20012;-87
2023/04/22 10:36:57;;;;;;;1.15;0.57;;;19.20;99.90;;;;;;6194864;23;20095;-87
2023/04/22 10:39:24;;;;;;;0.50;0.50;;;19.20;99.90;;;;;;6220275;23;20070;-86
2023/04/22 10:41:55;;;;;;;0.80;0.63;;;19.20;99.90;;;;;;6194644;23;20062;-87
2023/04/22 10:44:22;;;;;;;1.20;0.80;;;19.30;99.90;;;;;;6219153;23;20483;-88
2023/04/22 10:46:53;;;;;;;1.15;0.57;;;19.50;99.90;;;;;;6219965;23;20456;-87
2023/04/22 10:49:28;;;;;;;1.83;0.88;;;19.60;99.90;;;;;;6193950;23;20016;-88
2023/04/22 10:51:58;;;;;;;1.00;0.90;;;19.70;99.90;;;;;;6220084;23;20016;-85
2023/04/22 10:54:27;;;;;;;1.30;0.68;;;19.80;99.90;;;;;;6194687;23;20027;-86
2023/04/22 10:57:03;;;;;;;0.85;0.68;;;19.90;99.90;;;;;;6193702;23;20074;-85
2023/04/22 10:59:46;;;;;;;0.60;0.40;;;19.90;99.90;;;;;;6168658;23;20020;-86
2023/04/22 11:02:13;;;;;;;0.70;0.70;;;20.00;99.90;;;;;;6219548;23;20074;-84
2023/04/22 11:04:42;;;;;;;1.10;0.65;;;20.20;99.90;;;;;;6219287;23;20083;-86
2023/04/22 11:07:19;;;;;;;0.57;0.57;;;20.20;99.90;;;;;;6219552;23;20091;-83
2023/04/22 11:09:46;;;;;;;;;;;20.30;99.90;;;;;;6219968;23;20069;-82
2023/04/22 11:12:34;;;;;;;0.82;0.47;;;20.50;99.90;;;;;;6245518;23;19916;-84
2023/04/22 11:15:11;;;;;;;0.77;0.60;;;20.60;99.90;;;;;;6193353;23;20020;-87
2023/04/22 11:17:39;;;;;;;0.60;0.60;;;20.60;99.90;;;;;;6195041;23;20325;-82
2023/04/22 11:20:06;;;;;;;0.88;0.63;;;20.20;99.90;;;;;;6219515;23;20622;-82
2023/04/22 11:22:36;;;;;;;0.65;0.52;;;20.80;99.90;;;;;;6194910;23;20012;-82
2023/04/22 11:25:03;;;;;;;0.82;0.57;;;21.00;99.90;;;;;;6194956;23;20074;-82
2023/04/22 11:27:29;;;;;;;0.70;0.70;;;21.10;99.90;;;;;;6193800;23;20016;-83
2023/04/22 11:30:09;;;;;;;0.57;0.57;;;21.20;99.90;;;;;;6219436;23;20074;-82
2023/04/22 11:32:36;;;;;;;0.52;0.52;;;21.20;99.90;;;;;;6195398;23;20534;-82
2023/04/22 11:35:03;;;;;;;0.98;0.77;;;21.30;99.90;;;;;;6219439;23;20020;-83
2023/04/22 11:37:29;;;;;;;1.20;0.93;;;21.10;99.90;;;;;;6194199;23;20464;-83
2023/04/22 11:40:03;;;;;;;0.75;0.75;;;21.10;99.90;;;;;;6194702;23;20028;-82
2023/04/22 11:42:29;;;;;;;1.48;0.60;;;21.10;99.90;;;;;;6220066;23;20055;-82
2023/04/22 11:44:54;;;;;;;0.75;0.75;;;21.00;99.90;;;;;;6219772;23;20024;-82
2023/04/22 11:47:20;;;;;;;0.70;0.70;;;20.90;99.90;;;;;;6219458;23;20022;-83
2023/04/22 11:49:58;;;;;;;0.50;0.50;;;21.10;99.90;;;;;;6169760;23;20020;-83
2023/04/22 11:52:25;;;;;;;1.27;0.93;;;21.20;99.90;;;;;;6219451;23;20114;-85
2023/04/22 11:54:51;;;;;;;0.98;0.60;;;21.40;99.90;;;;;;6219080;23;20456;-82
2023/04/22 11:57:17;;;;;;;0.98;0.70;;;21.50;99.90;;;;;;6218683;23;20027;-82
2023/04/22 11:59:43;;;;;;;1.08;0.70;;;21.60;99.90;;;;;;6169561;23;20012;-82
2023/04/22 12:02:09;;;;;;;1.17;0.85;;;21.60;99.90;;;;;;6169566;23;20518;-83
2023/04/22 12:04:40;;;;;;;1.25;0.80;;;21.80;99.90;;;;;;6219553;23;20123;-82
2023/04/22 12:07:05;;;;;;;0.70;0.70;;;21.80;99.90;;;;;;6219434;23;20023;-83
2023/04/22 12:09:32;;;;;;;0.35;0.35;;;21.60;99.90;;;;;;6194415;23;20016;-83
2023/04/22 12:11:58;;;;;;;1.88;0.77;;;21.40;99.90;;;;;;6194244;23;20020;-84
2023/04/22 12:14:34;;;;;;;1.63;0.52;;;21.20;99.90;;;;;;6194322;23;20035;-82
2023/04/22 12:17:10;;;;;;;1.23;0.75;;;21.00;99.90;;;;;;6219017;23;20020;-82
2023/04/22 12:19:36;;;;;;;0.93;0.75;;;20.80;99.90;;;;;;6194701;23;20016;-82
2023/04/22 12:22:02;;;;;;;1.67;0.60;;;20.80;99.90;;;;;;6169509;23;20085;-82
2023/04/22 12:24:28;;;;;;;1.85;1.13;;;20.70;99.90;;;;;;6169524;23;20511;-82
2023/04/22 12:26:55;;;;;;;0.52;0.47;;;20.70;99.90;;;;;;6219489;23;20028;-82
2023/04/22 12:29:32;;;;;;;1.10;0.95;;;20.70;99.90;;;;;;6218995;23;20012;-82
2023/04/22 12:31:58;;;;;;;0.85;0.85;;;20.80;99.90;;;;;;6219742;23;20092;-82
2023/04/22 12:34:23;;;;;;;;;;;21.10;99.90;;;;;;6193984;23;20020;-82
2023/04/22 12:36:49;;;;;;;0.93;0.65;;;21.50;99.90;;;;;;6194097;23;19922;-81
2023/04/22 12:39:15;;;;;;;1.60;0.85;;;21.80;99.90;;;;;;6193580;23;20115;-83
2023/04/22 12:41:41;;;;;;;1.10;0.85;;;21.90;99.90;;;;;;6219369;23;20345;-82
2023/04/22 12:44:07;;;;;;;1.08;0.82;;;21.80;99.90;;;;;;6194249;23;20381;-82
2023/04/22 12:46:34;;;;;;;0.85;0.80;;;21.60;99.90;;;;;;6169430;23;20016;-82
2023/04/22 12:49:00;;;;;;;1.80;0.90;;;21.40;99.90;;;;;;6168913;23;20016;-83